createdAt,value
2019-03-23T00:01:04.007Z,99.90
2019-03-23T00:04:00.660Z,99.90
2019-03-23T00:06:57.985Z,99.90
2019-03-23T00:09:55.574Z,99.90
2019-03-23T00:12:54.673Z,99.90
2019-03-23T00:15:52.076Z,99.90
2019-03-23T00:18:49.177Z,99.90
2019-03-23T00:21:45.629Z,99.90
2019-03-23T00:24:42.446Z,99.90
2019-03-23T00:27:39.517Z,99.90
2019-03-23T00:30:36.638Z,99.90
2019-03-23T00:33:34.013Z,99.90
2019-03-23T00:36:40.779Z,99.90
2019-03-23T00:39:29.733Z,99.90
2019-03-23T00:42:27.311Z,99.90
2019-03-23T00:45:25.554Z,99.90
2019-03-23T00:48:22.283Z,99.90
2019-03-23T00:51:19.225Z,99.90
2019-03-23T00:54:16.860Z,99.90
2019-03-23T00:57:17.137Z,99.90
2019-03-23T01:00:15.399Z,99.90
2019-03-23T01:03:13.353Z,99.90
2019-03-23T01:06:11.151Z,99.90
2019-03-23T01:09:09.490Z,99.90
2019-03-23T01:12:07.629Z,99.90
2019-03-23T01:15:05.031Z,99.90
2019-03-23T01:18:01.825Z,99.90
2019-03-23T01:20:58.247Z,99.90
2019-03-23T01:23:55.606Z,99.90
2019-03-23T01:26:53.407Z,99.90
2019-03-23T01:29:50.171Z,99.90
2019-03-23T01:32:47.816Z,99.90
2019-03-23T01:35:44.816Z,99.90
2019-03-23T01:38:41.796Z,99.90
2019-03-23T01:41:38.818Z,99.90
2019-03-23T01:44:35.309Z,99.90
2019-03-23T01:47:33.327Z,99.90
2019-03-23T01:50:30.435Z,99.90
2019-03-23T01:53:27.220Z,99.90
2019-03-23T01:56:24.697Z,99.90
2019-03-23T01:59:22.241Z,99.90
2019-03-23T02:02:19.042Z,99.90
2019-03-23T02:05:16.400Z,99.90
2019-03-23T02:08:16.109Z,99.90
2019-03-23T02:11:14.856Z,99.90
2019-03-23T02:14:11.492Z,99.90
2019-03-23T02:17:07.949Z,99.90
2019-03-23T02:20:07.682Z,99.90
2019-03-23T02:23:04.308Z,99.90
2019-03-23T02:26:01.170Z,99.90
2019-03-23T02:28:57.543Z,99.90
2019-03-23T02:31:55.402Z,99.90
2019-03-23T02:34:52.892Z,99.90
2019-03-23T02:37:50.349Z,99.90
2019-03-23T02:40:48.065Z,99.90
2019-03-23T02:43:45.477Z,99.90
2019-03-23T02:46:42.816Z,99.90
2019-03-23T02:49:40.276Z,99.90
2019-03-23T02:52:38.447Z,99.90
2019-03-23T02:55:34.868Z,99.90
2019-03-23T02:58:32.609Z,99.90
2019-03-23T03:01:30.317Z,99.90
2019-03-23T03:04:27.631Z,99.90
2019-03-23T03:07:26.012Z,99.90
2019-03-23T03:10:41.573Z,99.90
2019-03-23T03:13:39.314Z,99.90
2019-03-23T03:16:36.478Z,99.90
2019-03-23T03:19:34.270Z,99.90
2019-03-23T03:22:31.216Z,99.90
2019-03-23T03:25:28.089Z,99.90
2019-03-23T03:28:25.819Z,99.90
2019-03-23T03:31:29.452Z,99.90
2019-03-23T03:34:27.716Z,99.90
2019-03-23T03:37:24.196Z,99.90
2019-03-23T03:40:20.503Z,99.90
2019-03-23T03:43:17.886Z,99.90
2019-03-23T03:46:14.644Z,99.90
2019-03-23T03:49:13.003Z,99.90
2019-03-23T03:52:10.804Z,99.90
2019-03-23T03:55:08.382Z,99.90
2019-03-23T03:58:06.166Z,99.90
2019-03-23T04:01:03.676Z,99.90
2019-03-23T04:04:00.190Z,99.90
2019-03-23T04:06:57.030Z,99.90
2019-03-23T04:09:54.444Z,99.90
2019-03-23T04:12:51.444Z,99.90
2019-03-23T04:15:48.330Z,99.90
2019-03-23T04:18:44.693Z,99.90
2019-03-23T04:21:41.149Z,99.90
2019-03-23T04:24:38.679Z,99.90
2019-03-23T04:27:35.530Z,99.90
2019-03-23T04:30:32.153Z,99.90
2019-03-23T04:33:29.563Z,99.90
2019-03-23T04:36:26.164Z,99.90
2019-03-23T04:39:23.628Z,99.90
2019-03-23T04:42:20.982Z,99.90
2019-03-23T04:45:18.565Z,99.90
2019-03-23T04:48:15.913Z,99.90
2019-03-23T04:51:14.198Z,99.90
2019-03-23T04:54:12.278Z,99.90
2019-03-23T04:57:09.822Z,99.90
2019-03-23T05:00:09.028Z,99.90
2019-03-23T05:03:05.610Z,99.90
2019-03-23T05:06:03.174Z,99.90
2019-03-23T05:08:59.695Z,99.90
2019-03-23T05:11:57.017Z,99.90
2019-03-23T05:14:54.607Z,99.90
2019-03-23T05:17:52.146Z,99.90
2019-03-23T05:20:49.497Z,99.90
2019-03-23T05:23:47.270Z,99.90
2019-03-23T05:26:44.758Z,99.90
2019-03-23T05:29:41.389Z,99.90
2019-03-23T05:32:39.185Z,99.90
2019-03-23T05:35:36.650Z,99.90
2019-03-23T05:38:43.580Z,99.90
2019-03-23T05:41:31.494Z,99.90
2019-03-23T05:44:28.414Z,99.90
2019-03-23T05:47:25.759Z,99.90
2019-03-23T05:50:22.352Z,99.90
2019-03-23T05:53:19.981Z,99.90
2019-03-23T05:56:16.453Z,99.90
2019-03-23T05:59:13.734Z,99.90
2019-03-23T06:02:11.082Z,99.90
2019-03-23T06:05:07.978Z,99.90
2019-03-23T06:08:05.955Z,99.90
2019-03-23T06:11:03.003Z,99.90
2019-03-23T06:13:59.922Z,99.90
2019-03-23T06:16:56.394Z,99.90
2019-03-23T06:19:55.920Z,99.90
2019-03-23T06:22:53.614Z,99.90
2019-03-23T06:25:51.366Z,99.90
2019-03-23T06:28:48.591Z,99.90
2019-03-23T06:31:46.049Z,99.90
2019-03-23T06:34:45.883Z,99.90
2019-03-23T06:37:45.614Z,99.90
2019-03-23T06:40:43.687Z,99.90
2019-03-23T06:43:41.181Z,99.90
2019-03-23T06:46:40.523Z,99.90
2019-03-23T06:49:37.657Z,99.90
2019-03-23T06:52:34.552Z,99.90
2019-03-23T06:55:32.540Z,99.90
2019-03-23T06:58:28.737Z,99.90
2019-03-23T07:01:27.482Z,99.90
2019-03-23T07:04:26.680Z,99.90
2019-03-23T07:07:23.039Z,99.90
2019-03-23T07:10:20.466Z,99.90
2019-03-23T07:13:16.674Z,99.90
2019-03-23T07:16:13.814Z,99.90
2019-03-23T07:19:10.894Z,99.90
2019-03-23T07:22:07.273Z,99.90
2019-03-23T07:25:06.837Z,99.90
2019-03-23T07:28:03.358Z,99.90
2019-03-23T07:31:02.523Z,99.90
2019-03-23T07:33:59.094Z,99.90
2019-03-23T07:36:56.067Z,99.90
2019-03-23T07:39:52.142Z,99.90
2019-03-23T07:42:48.614Z,99.90
2019-03-23T07:45:45.502Z,99.90
2019-03-23T07:48:42.685Z,99.90
2019-03-23T07:51:39.992Z,99.90
2019-03-23T07:54:37.432Z,99.90
2019-03-23T07:57:34.486Z,99.90
2019-03-23T08:00:31.719Z,97.80
2019-03-23T08:03:28.914Z,94.70
2019-03-23T08:06:25.063Z,92.70
2019-03-23T08:09:23.551Z,93.90
2019-03-23T08:12:20.771Z,90.90
2019-03-23T08:15:17.755Z,87.50
2019-03-23T08:18:15.253Z,81.20
2019-03-23T08:21:12.722Z,75.60
2019-03-23T08:24:08.719Z,71.00
2019-03-23T08:27:05.697Z,68.30
2019-03-23T08:30:01.943Z,66.50
2019-03-23T08:33:00.089Z,63.10
2019-03-23T08:35:57.801Z,62.70
2019-03-23T08:38:54.213Z,62.10
2019-03-23T08:41:50.832Z,62.00
2019-03-23T08:44:48.335Z,62.10
2019-03-23T08:47:45.625Z,60.10
2019-03-23T08:50:42.336Z,58.80
2019-03-23T08:53:39.819Z,57.20
2019-03-23T08:56:37.510Z,58.80
2019-03-23T08:59:34.496Z,58.60
2019-03-23T09:02:33.187Z,58.00
2019-03-23T09:05:30.314Z,54.60
2019-03-23T09:08:28.055Z,53.30
2019-03-23T09:11:24.574Z,53.50
2019-03-23T09:14:20.873Z,51.80
2019-03-23T09:17:17.156Z,51.90
2019-03-23T09:20:14.802Z,51.00
2019-03-23T09:23:10.988Z,46.40
2019-03-23T09:26:07.178Z,47.20
2019-03-23T09:29:03.636Z,46.80
2019-03-23T09:32:00.251Z,47.50
2019-03-23T09:34:57.779Z,47.50
2019-03-23T09:37:54.264Z,45.50
2019-03-23T09:40:50.637Z,45.80
2019-03-23T09:43:47.642Z,45.90
2019-03-23T09:46:44.840Z,43.10
2019-03-23T09:49:41.764Z,43.40
2019-03-23T09:52:37.919Z,44.10
2019-03-23T09:55:34.908Z,43.60
2019-03-23T09:58:31.200Z,42.60
2019-03-23T10:01:27.289Z,43.30
2019-03-23T10:04:23.940Z,44.10
2019-03-23T10:07:22.236Z,41.80
2019-03-23T10:10:22.129Z,41.90
2019-03-23T10:13:19.403Z,41.90
2019-03-23T10:16:15.868Z,42.00
2019-03-23T10:19:13.102Z,40.40
2019-03-23T10:22:10.133Z,39.50
2019-03-23T10:25:06.876Z,39.60
2019-03-23T10:28:03.774Z,39.80
2019-03-23T10:31:00.783Z,39.00
2019-03-23T10:33:57.767Z,40.70
2019-03-23T10:36:59.266Z,40.70
2019-03-23T10:39:56.469Z,39.20
2019-03-23T10:42:52.593Z,39.20
2019-03-23T10:45:48.737Z,39.80
2019-03-23T10:48:47.911Z,38.50
2019-03-23T10:51:48.645Z,37.70
2019-03-23T10:54:46.242Z,37.80
2019-03-23T10:57:42.575Z,38.20
2019-03-23T11:00:38.986Z,39.20
2019-03-23T11:03:35.450Z,39.30
2019-03-23T11:06:32.854Z,39.80
2019-03-23T11:09:30.033Z,38.90
2019-03-23T11:12:26.553Z,38.70
2019-03-23T11:15:23.775Z,38.10
2019-03-23T11:18:23.196Z,38.40
2019-03-23T11:21:19.670Z,37.60
2019-03-23T11:24:18.401Z,38.00
2019-03-23T11:27:14.383Z,37.80
2019-03-23T11:30:11.759Z,37.70
2019-03-23T11:33:07.895Z,38.20
2019-03-23T11:36:04.643Z,38.70
2019-03-23T11:39:02.326Z,37.60
2019-03-23T11:42:00.002Z,37.40
2019-03-23T11:44:58.482Z,37.40
2019-03-23T11:47:55.398Z,36.90
2019-03-23T11:50:51.937Z,38.50
2019-03-23T11:53:49.421Z,38.20
2019-03-23T11:56:46.328Z,37.30
2019-03-23T11:59:43.090Z,37.50
2019-03-23T12:02:40.259Z,36.70
2019-03-23T12:05:37.245Z,37.00
2019-03-23T12:08:33.358Z,36.70
2019-03-23T12:11:30.564Z,38.60
2019-03-23T12:14:27.312Z,37.90
2019-03-23T12:17:24.595Z,36.80
2019-03-23T12:20:21.130Z,37.30
2019-03-23T12:23:18.771Z,37.10
2019-03-23T12:26:15.753Z,36.80
2019-03-23T12:29:13.623Z,36.30
2019-03-23T12:32:10.135Z,39.30
2019-03-23T12:35:10.115Z,38.00
2019-03-23T12:38:06.689Z,37.30
2019-03-23T12:41:14.242Z,35.90
2019-03-23T12:44:03.907Z,37.10
2019-03-23T12:47:01.639Z,37.70
2019-03-23T12:49:58.064Z,36.30
2019-03-23T12:52:57.489Z,35.10
2019-03-23T12:55:53.983Z,36.20
2019-03-23T12:58:50.233Z,36.00
2019-03-23T13:01:47.307Z,36.60
2019-03-23T13:04:48.063Z,37.00
2019-03-23T13:07:44.975Z,37.40
2019-03-23T13:10:41.780Z,36.90
2019-03-23T13:13:38.142Z,38.20
2019-03-23T13:16:34.722Z,37.80
2019-03-23T13:19:34.387Z,39.70
2019-03-23T13:22:30.510Z,38.80
2019-03-23T13:25:26.871Z,38.70
2019-03-23T13:28:26.380Z,39.00
2019-03-23T13:31:23.853Z,38.40
2019-03-23T13:34:21.026Z,39.80
2019-03-23T13:37:17.161Z,40.50
2019-03-23T13:40:16.240Z,39.90
2019-03-23T13:43:13.537Z,39.80
2019-03-23T13:46:09.560Z,41.60
2019-03-23T13:49:05.806Z,42.00
2019-03-23T13:52:33.683Z,41.90
2019-03-23T13:55:34.011Z,41.20
2019-03-23T13:58:30.828Z,41.00
2019-03-23T14:01:29.877Z,39.70
2019-03-23T14:04:26.159Z,40.40
2019-03-23T14:07:23.124Z,41.20
2019-03-23T14:10:19.810Z,41.20
2019-03-23T14:13:16.062Z,41.30
2019-03-23T14:16:13.245Z,41.40
2019-03-23T14:19:11.057Z,41.90
2019-03-23T14:22:07.714Z,42.60
2019-03-23T14:25:05.218Z,41.90
2019-03-23T14:28:02.491Z,40.80
2019-03-23T14:30:58.906Z,40.70
2019-03-23T14:33:55.968Z,41.80
2019-03-23T14:36:53.430Z,40.30
2019-03-23T14:39:50.317Z,40.60
2019-03-23T14:42:47.460Z,41.10
2019-03-23T14:45:45.122Z,41.60
2019-03-23T14:48:41.277Z,42.80
2019-03-23T14:51:37.501Z,43.00
2019-03-23T14:54:33.941Z,43.70
2019-03-23T14:57:31.315Z,41.70
2019-03-23T15:00:33.564Z,41.90
2019-03-23T15:03:30.460Z,42.30
2019-03-23T15:06:27.542Z,43.20
2019-03-23T15:09:24.247Z,43.00
2019-03-23T15:12:20.532Z,42.60
2019-03-23T15:15:17.808Z,42.70
2019-03-23T15:18:15.338Z,44.00
2019-03-23T15:21:11.717Z,43.60
2019-03-23T15:24:08.437Z,43.90
2019-03-23T15:27:05.382Z,44.70
2019-03-23T15:30:02.054Z,45.40
2019-03-23T15:32:58.195Z,46.80
2019-03-23T15:35:55.311Z,48.30
2019-03-23T15:38:52.526Z,49.90
2019-03-23T15:41:49.133Z,49.80
2019-03-23T15:44:45.620Z,49.60
2019-03-23T15:47:43.063Z,49.40
2019-03-23T15:50:40.239Z,49.50
2019-03-23T15:53:36.685Z,50.10
2019-03-23T15:56:33.861Z,50.50
2019-03-23T15:59:31.058Z,50.30
2019-03-23T16:02:28.058Z,50.70
2019-03-23T16:05:25.025Z,50.50
2019-03-23T16:08:22.156Z,52.10
2019-03-23T16:11:20.858Z,53.40
2019-03-23T16:14:17.503Z,54.00
2019-03-23T16:17:14.538Z,54.80
2019-03-23T16:20:12.629Z,56.10
2019-03-23T16:23:11.354Z,56.50
2019-03-23T16:26:07.738Z,56.90
2019-03-23T16:29:04.589Z,58.20
2019-03-23T16:32:01.326Z,58.50
2019-03-23T16:34:58.118Z,60.00
2019-03-23T16:37:54.156Z,61.50
2019-03-23T16:40:50.259Z,62.50
2019-03-23T16:43:47.408Z,63.60
2019-03-23T16:46:45.252Z,65.30
2019-03-23T16:49:42.382Z,66.90
2019-03-23T16:52:39.867Z,69.50
2019-03-23T16:55:35.972Z,73.90
2019-03-23T16:58:32.894Z,82.10
2019-03-23T17:01:29.840Z,96.20
2019-03-23T17:04:26.279Z,99.90
2019-03-23T17:07:22.482Z,99.90
2019-03-23T17:10:19.651Z,99.90
2019-03-23T17:13:15.905Z,99.90
2019-03-23T17:16:14.482Z,99.90
2019-03-23T17:19:11.073Z,99.90
2019-03-23T17:22:08.050Z,99.90
2019-03-23T17:25:07.294Z,99.90
2019-03-23T17:28:03.657Z,99.90
2019-03-23T17:31:01.297Z,99.90
2019-03-23T17:33:58.814Z,99.90
2019-03-23T17:36:56.185Z,99.90
2019-03-23T17:39:53.384Z,99.90
2019-03-23T17:42:53.986Z,99.90
2019-03-23T17:45:53.806Z,99.90
2019-03-23T17:48:52.283Z,99.90
2019-03-23T17:51:51.605Z,99.90
2019-03-23T17:54:49.288Z,99.90
2019-03-23T17:57:45.872Z,99.90
2019-03-23T18:00:43.383Z,99.90
2019-03-23T18:03:40.967Z,99.90
2019-03-23T18:06:38.437Z,99.90
2019-03-23T18:09:35.637Z,99.90
2019-03-23T18:12:33.095Z,99.90
2019-03-23T18:15:29.753Z,99.90
2019-03-23T18:18:26.695Z,99.90
2019-03-23T18:21:23.359Z,99.90
2019-03-23T18:24:20.164Z,99.90
2019-03-23T18:27:17.159Z,99.90
2019-03-23T18:30:40.302Z,99.90
2019-03-23T18:33:38.024Z,99.90
2019-03-23T18:36:34.333Z,99.90
2019-03-23T18:39:30.713Z,99.90
2019-03-23T18:42:28.169Z,99.90
2019-03-23T18:45:25.178Z,99.90
2019-03-23T18:48:22.621Z,99.90
2019-03-23T18:51:20.238Z,99.90
2019-03-23T18:54:17.265Z,99.90
2019-03-23T18:57:13.612Z,99.90
2019-03-23T19:00:11.406Z,99.90
2019-03-23T19:03:08.472Z,99.90
2019-03-23T19:06:07.733Z,99.90
2019-03-23T19:09:05.664Z,99.90
2019-03-23T19:12:03.507Z,99.90
2019-03-23T19:15:02.096Z,99.90
2019-03-23T19:18:00.664Z,99.90
2019-03-23T19:20:57.548Z,99.90
2019-03-23T19:23:55.310Z,99.90
2019-03-23T19:26:52.621Z,99.90
2019-03-23T19:29:49.514Z,99.90
2019-03-23T19:32:47.367Z,99.90
2019-03-23T19:35:44.789Z,99.90
2019-03-23T19:38:42.612Z,99.90
2019-03-23T19:41:39.464Z,99.90
2019-03-23T19:44:36.269Z,99.90
2019-03-23T19:47:33.923Z,99.90
2019-03-23T19:50:31.605Z,99.90
2019-03-23T19:53:28.705Z,99.90
2019-03-23T19:56:25.349Z,99.90
2019-03-23T19:59:22.941Z,99.90
2019-03-23T20:02:19.443Z,99.90
2019-03-23T20:05:17.042Z,99.90
2019-03-23T20:08:14.611Z,99.90
2019-03-23T20:11:11.290Z,99.90
2019-03-23T20:14:08.727Z,99.90
2019-03-23T20:17:06.114Z,99.90
2019-03-23T20:20:03.965Z,99.90
2019-03-23T20:23:01.535Z,99.90
2019-03-23T20:25:58.382Z,99.90
2019-03-23T20:28:57.121Z,99.90
2019-03-23T20:31:55.030Z,99.90
2019-03-23T20:34:52.540Z,99.90
2019-03-23T20:37:49.260Z,99.90
2019-03-23T20:40:46.457Z,99.90
2019-03-23T20:43:44.005Z,99.90
2019-03-23T20:46:41.550Z,99.90
2019-03-23T20:49:39.413Z,99.90
2019-03-23T20:52:37.174Z,99.90
2019-03-23T20:55:33.545Z,99.90
2019-03-23T20:58:32.331Z,99.90
2019-03-23T21:01:28.992Z,99.90
2019-03-23T21:04:25.557Z,99.90
2019-03-23T21:07:22.207Z,99.90
2019-03-23T21:10:19.476Z,99.90
2019-03-23T21:13:18.417Z,99.90
2019-03-23T21:16:15.794Z,99.90
2019-03-23T21:19:13.334Z,99.90
2019-03-23T21:22:10.522Z,99.90
2019-03-23T21:25:08.093Z,99.90
2019-03-23T21:28:04.961Z,99.90
2019-03-23T21:31:02.106Z,99.90
2019-03-23T21:34:00.901Z,99.90
2019-03-23T21:36:58.296Z,99.90
2019-03-23T21:39:54.771Z,99.90
2019-03-23T21:42:52.638Z,99.90
2019-03-23T21:45:50.188Z,99.90
2019-03-23T21:48:46.708Z,99.90
2019-03-23T21:51:44.232Z,99.90
2019-03-23T21:54:41.587Z,99.90
2019-03-23T21:57:39.142Z,99.90
2019-03-23T22:00:38.182Z,99.90
2019-03-23T22:03:35.866Z,99.90
2019-03-23T22:06:33.415Z,99.90
2019-03-23T22:09:30.337Z,99.90
2019-03-23T22:12:29.448Z,99.90
2019-03-23T22:15:26.191Z,99.90
2019-03-23T22:18:23.839Z,99.90
2019-03-23T22:21:21.211Z,99.90
2019-03-23T22:24:18.894Z,99.90
2019-03-23T22:27:19.102Z,99.90
2019-03-23T22:30:16.922Z,99.90
2019-03-23T22:33:13.921Z,99.90
2019-03-23T22:36:11.588Z,99.90
2019-03-23T22:39:09.681Z,99.90
2019-03-23T22:42:07.061Z,99.90
2019-03-23T22:45:04.294Z,99.90
2019-03-23T22:48:02.050Z,99.90
2019-03-23T22:50:59.898Z,99.90
2019-03-23T22:53:57.389Z,99.90
2019-03-23T22:56:55.241Z,99.90
2019-03-23T22:59:52.595Z,99.90
2019-03-23T23:02:50.277Z,99.90
2019-03-23T23:05:47.668Z,99.90
2019-03-23T23:08:44.247Z,99.90
2019-03-23T23:11:41.768Z,99.90
2019-03-23T23:14:40.760Z,99.90
2019-03-23T23:17:38.175Z,99.90
2019-03-23T23:20:36.251Z,99.90
2019-03-23T23:23:33.484Z,99.90
2019-03-23T23:26:34.226Z,99.90
2019-03-23T23:29:30.730Z,99.90
2019-03-23T23:32:27.564Z,99.90
2019-03-23T23:35:24.622Z,99.90
2019-03-23T23:38:21.938Z,99.90
2019-03-23T23:41:19.190Z,99.90
2019-03-23T23:44:16.982Z,99.90
2019-03-23T23:47:13.542Z,99.90
2019-03-23T23:50:11.507Z,99.90
2019-03-23T23:53:09.089Z,99.90
2019-03-23T23:56:06.305Z,99.90
2019-03-23T23:59:03.154Z,99.90
